sensor_id;sensor_type;location;lat;lon;timestamp;P1;durP1;ratioP1;P2;durP2;ratioP2
2724;SDS011;1370;52.596;13.112;2022-07-06T00:01:27;1.80;;;1.17;;
2724;SDS011;1370;52.596;13.112;2022-07-06T00:03:52;4.23;;;1.10;;
2724;SDS011;1370;52.596;13.112;2022-07-06T00:06:17;2.23;;;1.23;;
2724;SDS011;1370;52.596;13.112;2022-07-06T00:08:43;2.90;;;1.30;;
2724;SDS011;1370;52.596;13.112;2022-07-06T00:11:08;2.83;;;1.20;;
2724;SDS011;1370;52.596;13.112;2022-07-06T00:13:34;1.43;;;0.90;;
2724;SDS011;1370;52.596;13.112;2022-07-06T00:15:59;2.60;;;1.37;;
2724;SDS011;1370;52.596;13.112;2022-07-06T00:18:24;4.13;;;1.30;;
2724;SDS011;1370;52.596;13.112;2022-07-06T00:20:50;1.97;;;1.40;;
2724;SDS011;1370;52.596;13.112;2022-07-06T00:23:15;2.03;;;1.83;;
2724;SDS011;1370;52.596;13.112;2022-07-06T00:25:40;3.10;;;1.43;;
2724;SDS011;1370;52.596;13.112;2022-07-06T00:28:06;1.50;;;1.40;;
2724;SDS011;1370;52.596;13.112;2022-07-06T00:30:31;3.87;;;1.30;;
2724;SDS011;1370;52.596;13.112;2022-07-06T00:32:56;6.37;;;1.37;;
2724;SDS011;1370;52.596;13.112;2022-07-06T00:35:23;1.80;;;1.43;;
2724;SDS011;1370;52.596;13.112;2022-07-06T00:37:49;1.70;;;1.60;;
2724;SDS011;1370;52.596;13.112;2022-07-06T00:40:14;1.60;;;1.50;;
2724;SDS011;1370;52.596;13.112;2022-07-06T00:42:44;5.10;;;1.90;;
2724;SDS011;1370;52.596;13.112;2022-07-06T00:45:12;5.63;;;2.17;;
2724;SDS011;1370;52.596;13.112;2022-07-06T00:47:39;2.23;;;1.60;;
2724;SDS011;1370;52.596;13.112;2022-07-06T00:50:05;4.70;;;1.80;;
2724;SDS011;1370;52.596;13.112;2022-07-06T00:52:44;1.87;;;1.50;;
2724;SDS011;1370;52.596;13.112;2022-07-06T00:55:11;1.70;;;1.37;;
2724;SDS011;1370;52.596;13.112;2022-07-06T00:57:37;3.63;;;1.97;;
2724;SDS011;1370;52.596;13.112;2022-07-06T01:00:03;5.57;;;1.70;;
2724;SDS011;1370;52.596;13.112;2022-07-06T01:02:32;2.77;;;1.37;;
2724;SDS011;1370;52.596;13.112;2022-07-06T01:04:58;1.70;;;1.30;;
2724;SDS011;1370;52.596;13.112;2022-07-06T01:07:24;3.63;;;1.80;;
2724;SDS011;1370;52.596;13.112;2022-07-06T01:09:49;12.33;;;1.60;;
2724;SDS011;1370;52.596;13.112;2022-07-06T01:12:15;1.97;;;1.73;;
2724;SDS011;1370;52.596;13.112;2022-07-06T01:14:40;2.53;;;1.63;;
2724;SDS011;1370;52.596;13.112;2022-07-06T01:17:06;6.90;;;2.03;;
2724;SDS011;1370;52.596;13.112;2022-07-06T01:19:32;2.60;;;1.70;;
2724;SDS011;1370;52.596;13.112;2022-07-06T01:21:57;3.00;;;2.17;;
2724;SDS011;1370;52.596;13.112;2022-07-06T01:24:22;2.40;;;2.17;;
2724;SDS011;1370;52.596;13.112;2022-07-06T01:26:48;5.73;;;1.70;;
2724;SDS011;1370;52.596;13.112;2022-07-06T01:29:13;6.07;;;2.03;;
2724;SDS011;1370;52.596;13.112;2022-07-06T01:31:45;4.27;;;1.37;;
2724;SDS011;1370;52.596;13.112;2022-07-06T01:34:12;4.47;;;1.40;;
2724;SDS011;1370;52.596;13.112;2022-07-06T01:36:38;1.70;;;1.30;;
2724;SDS011;1370;52.596;13.112;2022-07-06T01:39:03;2.73;;;1.70;;
2724;SDS011;1370;52.596;13.112;2022-07-06T01:41:29;3.93;;;1.80;;
2724;SDS011;1370;52.596;13.112;2022-07-06T01:43:54;3.53;;;1.93;;
2724;SDS011;1370;52.596;13.112;2022-07-06T01:46:19;3.10;;;1.57;;
2724;SDS011;1370;52.596;13.112;2022-07-06T01:48:45;3.70;;;1.43;;
2724;SDS011;1370;52.596;13.112;2022-07-06T01:51:11;3.43;;;1.90;;
2724;SDS011;1370;52.596;13.112;2022-07-06T01:53:37;3.73;;;1.50;;
2724;SDS011;1370;52.596;13.112;2022-07-06T01:56:02;2.70;;;2.00;;
2724;SDS011;1370;52.596;13.112;2022-07-06T01:58:28;2.63;;;1.40;;
2724;SDS011;1370;52.596;13.112;2022-07-06T02:00:53;5.60;;;2.00;;
2724;SDS011;1370;52.596;13.112;2022-07-06T02:03:18;2.23;;;1.93;;
2724;SDS011;1370;52.596;13.112;2022-07-06T02:05:44;2.53;;;1.50;;
2724;SDS011;1370;52.596;13.112;2022-07-06T02:08:09;1.97;;;1.77;;
2724;SDS011;1370;52.596;13.112;2022-07-06T02:10:34;2.47;;;1.87;;
2724;SDS011;1370;52.596;13.112;2022-07-06T02:13:00;2.60;;;1.80;;
2724;SDS011;1370;52.596;13.112;2022-07-06T02:15:25;1.73;;;1.63;;
2724;SDS011;1370;52.596;13.112;2022-07-06T02:17:50;1.97;;;1.57;;
2724;SDS011;1370;52.596;13.112;2022-07-06T02:20:15;3.70;;;1.67;;
2724;SDS011;1370;52.596;13.112;2022-07-06T02:22:41;3.20;;;2.00;;
2724;SDS011;1370;52.596;13.112;2022-07-06T02:25:06;3.90;;;1.90;;
2724;SDS011;1370;52.596;13.112;2022-07-06T02:27:32;4.50;;;2.33;;
2724;SDS011;1370;52.596;13.112;2022-07-06T02:29:57;2.73;;;1.93;;
2724;SDS011;1370;52.596;13.112;2022-07-06T02:32:22;2.10;;;1.80;;
2724;SDS011;1370;52.596;13.112;2022-07-06T02:34:48;3.73;;;2.50;;
2724;SDS011;1370;52.596;13.112;2022-07-06T02:37:13;2.33;;;2.13;;
2724;SDS011;1370;52.596;13.112;2022-07-06T02:39:38;2.63;;;1.70;;
2724;SDS011;1370;52.596;13.112;2022-07-06T02:42:04;1.93;;;1.70;;
2724;SDS011;1370;52.596;13.112;2022-07-06T02:44:30;2.43;;;1.73;;
2724;SDS011;1370;52.596;13.112;2022-07-06T02:46:56;7.23;;;2.30;;
2724;SDS011;1370;52.596;13.112;2022-07-06T02:49:21;3.83;;;2.10;;
2724;SDS011;1370;52.596;13.112;2022-07-06T02:51:46;4.73;;;1.90;;
2724;SDS011;1370;52.596;13.112;2022-07-06T02:54:11;2.00;;;1.80;;
2724;SDS011;1370;52.596;13.112;2022-07-06T02:56:37;6.50;;;2.13;;
2724;SDS011;1370;52.596;13.112;2022-07-06T02:59:02;6.50;;;2.50;;
2724;SDS011;1370;52.596;13.112;2022-07-06T03:01:27;3.80;;;1.23;;
2724;SDS011;1370;52.596;13.112;2022-07-06T03:03:53;3.83;;;1.87;;
2724;SDS011;1370;52.596;13.112;2022-07-06T03:06:18;2.50;;;2.10;;
2724;SDS011;1370;52.596;13.112;2022-07-06T03:08:43;3.10;;;2.30;;
2724;SDS011;1370;52.596;13.112;2022-07-06T03:11:08;2.30;;;1.77;;
2724;SDS011;1370;52.596;13.112;2022-07-06T03:13:34;2.07;;;1.60;;
2724;SDS011;1370;52.596;13.112;2022-07-06T03:15:59;1.83;;;1.57;;
2724;SDS011;1370;52.596;13.112;2022-07-06T03:18:25;2.03;;;1.73;;
2724;SDS011;1370;52.596;13.112;2022-07-06T03:20:50;2.37;;;1.57;;
2724;SDS011;1370;52.596;13.112;2022-07-06T03:23:15;5.23;;;2.07;;
2724;SDS011;1370;52.596;13.112;2022-07-06T03:25:41;1.60;;;1.50;;
2724;SDS011;1370;52.596;13.112;2022-07-06T03:28:06;1.90;;;1.80;;
2724;SDS011;1370;52.596;13.112;2022-07-06T03:30:31;3.13;;;2.10;;
2724;SDS011;1370;52.596;13.112;2022-07-06T03:32:56;2.33;;;1.80;;
2724;SDS011;1370;52.596;13.112;2022-07-06T03:35:22;4.37;;;2.33;;
2724;SDS011;1370;52.596;13.112;2022-07-06T03:37:47;3.07;;;2.20;;
2724;SDS011;1370;52.596;13.112;2022-07-06T03:40:12;2.73;;;1.90;;
2724;SDS011;1370;52.596;13.112;2022-07-06T03:42:38;2.07;;;1.83;;
2724;SDS011;1370;52.596;13.112;2022-07-06T03:45:04;3.20;;;2.00;;
2724;SDS011;1370;52.596;13.112;2022-07-06T03:47:30;1.80;;;1.70;;
2724;SDS011;1370;52.596;13.112;2022-07-06T03:49:56;2.10;;;1.90;;
2724;SDS011;1370;52.596;13.112;2022-07-06T03:52:21;2.50;;;2.30;;
2724;SDS011;1370;52.596;13.112;2022-07-06T03:54:46;2.33;;;2.13;;
2724;SDS011;1370;52.596;13.112;2022-07-06T03:57:12;6.80;;;1.97;;
2724;SDS011;1370;52.596;13.112;2022-07-06T03:59:38;2.40;;;2.10;;
2724;SDS011;1370;52.596;13.112;2022-07-06T04:02:04;2.40;;;1.73;;
2724;SDS011;1370;52.596;13.112;2022-07-06T04:04:29;2.03;;;1.93;;
2724;SDS011;1370;52.596;13.112;2022-07-06T04:06:54;3.33;;;2.03;;
2724;SDS011;1370;52.596;13.112;2022-07-06T04:09:20;2.70;;;2.50;;
2724;SDS011;1370;52.596;13.112;2022-07-06T04:11:45;1.70;;;1.43;;
2724;SDS011;1370;52.596;13.112;2022-07-06T04:14:10;2.73;;;2.07;;
2724;SDS011;1370;52.596;13.112;2022-07-06T04:16:35;7.80;;;1.70;;
2724;SDS011;1370;52.596;13.112;2022-07-06T04:19:01;2.27;;;2.07;;
2724;SDS011;1370;52.596;13.112;2022-07-06T04:21:26;2.00;;;1.90;;
2724;SDS011;1370;52.596;13.112;2022-07-06T04:23:51;5.90;;;2.20;;
2724;SDS011;1370;52.596;13.112;2022-07-06T04:26:16;3.70;;;2.10;;
2724;SDS011;1370;52.596;13.112;2022-07-06T04:28:42;5.60;;;2.20;;
2724;SDS011;1370;52.596;13.112;2022-07-06T04:31:07;2.53;;;2.33;;
2724;SDS011;1370;52.596;13.112;2022-07-06T04:33:33;4.30;;;2.37;;
2724;SDS011;1370;52.596;13.112;2022-07-06T04:35:59;2.40;;;2.20;;
2724;SDS011;1370;52.596;13.112;2022-07-06T04:38:24;2.47;;;2.20;;
2724;SDS011;1370;52.596;13.112;2022-07-06T04:40:49;5.67;;;2.63;;
2724;SDS011;1370;52.596;13.112;2022-07-06T04:43:14;3.77;;;2.37;;
2724;SDS011;1370;52.596;13.112;2022-07-06T04:45:40;1.87;;;1.77;;
2724;SDS011;1370;52.596;13.112;2022-07-06T04:48:05;2.20;;;2.00;;
2724;SDS011;1370;52.596;13.112;2022-07-06T04:50:33;3.10;;;2.20;;
2724;SDS011;1370;52.596;13.112;2022-07-06T04:52:58;4.13;;;2.00;;
2724;SDS011;1370;52.596;13.112;2022-07-06T04:55:23;2.30;;;1.90;;
2724;SDS011;1370;52.596;13.112;2022-07-06T04:57:49;6.90;;;2.47;;
2724;SDS011;1370;52.596;13.112;2022-07-06T05:00:16;2.50;;;2.30;;
2724;SDS011;1370;52.596;13.112;2022-07-06T05:02:41;5.67;;;4.90;;
2724;SDS011;1370;52.596;13.112;2022-07-06T05:05:07;3.07;;;2.57;;
2724;SDS011;1370;52.596;13.112;2022-07-06T05:07:34;2.20;;;2.00;;
2724;SDS011;1370;52.596;13.112;2022-07-06T05:10:04;3.43;;;1.90;;
2724;SDS011;1370;52.596;13.112;2022-07-06T05:12:30;7.37;;;2.10;;
2724;SDS011;1370;52.596;13.112;2022-07-06T05:14:55;3.30;;;1.77;;
2724;SDS011;1370;52.596;13.112;2022-07-06T05:17:20;3.40;;;2.40;;
2724;SDS011;1370;52.596;13.112;2022-07-06T05:19:46;2.97;;;2.03;;
2724;SDS011;1370;52.596;13.112;2022-07-06T05:22:11;2.67;;;2.10;;
2724;SDS011;1370;52.596;13.112;2022-07-06T05:24:36;5.50;;;2.10;;
2724;SDS011;1370;52.596;13.112;2022-07-06T05:27:02;2.57;;;1.90;;
2724;SDS011;1370;52.596;13.112;2022-07-06T05:29:27;4.13;;;2.43;;
2724;SDS011;1370;52.596;13.112;2022-07-06T05:31:52;4.10;;;2.80;;
2724;SDS011;1370;52.596;13.112;2022-07-06T05:34:18;3.87;;;3.57;;
2724;SDS011;1370;52.596;13.112;2022-07-06T05:36:43;4.57;;;2.47;;
2724;SDS011;1370;52.596;13.112;2022-07-06T05:39:09;2.83;;;2.00;;
2724;SDS011;1370;52.596;13.112;2022-07-06T05:41:34;4.00;;;1.90;;
2724;SDS011;1370;52.596;13.112;2022-07-06T05:43:59;5.73;;;2.13;;
2724;SDS011;1370;52.596;13.112;2022-07-06T05:46:24;8.73;;;2.60;;
2724;SDS011;1370;52.596;13.112;2022-07-06T05:48:50;3.37;;;1.53;;
2724;SDS011;1370;52.596;13.112;2022-07-06T05:51:44;2.07;;;1.70;;
2724;SDS011;1370;52.596;13.112;2022-07-06T05:54:10;3.03;;;1.90;;
2724;SDS011;1370;52.596;13.112;2022-07-06T05:56:35;11.50;;;2.90;;
2724;SDS011;1370;52.596;13.112;2022-07-06T05:59:00;7.87;;;2.47;;
2724;SDS011;1370;52.596;13.112;2022-07-06T06:01:26;6.23;;;2.60;;
2724;SDS011;1370;52.596;13.112;2022-07-06T06:03:51;3.10;;;1.93;;
2724;SDS011;1370;52.596;13.112;2022-07-06T06:06:16;3.60;;;2.30;;
2724;SDS011;1370;52.596;13.112;2022-07-06T06:08:41;2.40;;;1.70;;
2724;SDS011;1370;52.596;13.112;2022-07-06T06:11:07;3.60;;;2.53;;
2724;SDS011;1370;52.596;13.112;2022-07-06T06:13:32;3.87;;;1.90;;
2724;SDS011;1370;52.596;13.112;2022-07-06T06:15:57;4.10;;;2.43;;
2724;SDS011;1370;52.596;13.112;2022-07-06T06:18:23;2.07;;;1.87;;
2724;SDS011;1370;52.596;13.112;2022-07-06T06:20:48;9.40;;;2.20;;
2724;SDS011;1370;52.596;13.112;2022-07-06T06:23:14;3.63;;;2.80;;
2724;SDS011;1370;52.596;13.112;2022-07-06T06:25:39;7.30;;;3.40;;
2724;SDS011;1370;52.596;13.112;2022-07-06T06:28:08;5.20;;;2.10;;
2724;SDS011;1370;52.596;13.112;2022-07-06T06:30:34;3.20;;;2.00;;
2724;SDS011;1370;52.596;13.112;2022-07-06T06:33:10;3.70;;;1.97;;
2724;SDS011;1370;52.596;13.112;2022-07-06T06:35:37;5.30;;;1.70;;
2724;SDS011;1370;52.596;13.112;2022-07-06T06:38:03;3.17;;;2.30;;
2724;SDS011;1370;52.596;13.112;2022-07-06T06:40:29;4.70;;;2.40;;
2724;SDS011;1370;52.596;13.112;2022-07-06T06:42:54;7.53;;;2.23;;
2724;SDS011;1370;52.596;13.112;2022-07-06T06:45:19;2.37;;;1.73;;
2724;SDS011;1370;52.596;13.112;2022-07-06T06:47:45;3.57;;;1.70;;
2724;SDS011;1370;52.596;13.112;2022-07-06T06:50:10;3.20;;;1.87;;
2724;SDS011;1370;52.596;13.112;2022-07-06T06:52:35;21.87;;;2.63;;
2724;SDS011;1370;52.596;13.112;2022-07-06T06:55:00;9.70;;;2.50;;
2724;SDS011;1370;52.596;13.112;2022-07-06T06:57:26;5.87;;;2.20;;
2724;SDS011;1370;52.596;13.112;2022-07-06T06:59:53;3.13;;;1.40;;
2724;SDS011;1370;52.596;13.112;2022-07-06T07:02:19;3.97;;;1.80;;
2724;SDS011;1370;52.596;13.112;2022-07-06T07:04:44;6.40;;;1.67;;
2724;SDS011;1370;52.596;13.112;2022-07-06T07:07:09;4.80;;;1.40;;
2724;SDS011;1370;52.596;13.112;2022-07-06T07:09:34;1.70;;;1.33;;
2724;SDS011;1370;52.596;13.112;2022-07-06T07:12:00;5.10;;;1.40;;
2724;SDS011;1370;52.596;13.112;2022-07-06T07:14:25;3.50;;;1.97;;
2724;SDS011;1370;52.596;13.112;2022-07-06T07:16:52;2.80;;;1.83;;
2724;SDS011;1370;52.596;13.112;2022-07-06T07:19:17;3.30;;;1.73;;
2724;SDS011;1370;52.596;13.112;2022-07-06T07:21:43;2.23;;;1.40;;
2724;SDS011;1370;52.596;13.112;2022-07-06T07:24:08;5.00;;;1.73;;
2724;SDS011;1370;52.596;13.112;2022-07-06T07:26:33;5.27;;;2.67;;
2724;SDS011;1370;52.596;13.112;2022-07-06T07:28:59;3.10;;;1.83;;
2724;SDS011;1370;52.596;13.112;2022-07-06T07:31:24;4.73;;;1.37;;
2724;SDS011;1370;52.596;13.112;2022-07-06T07:33:49;4.00;;;1.57;;
2724;SDS011;1370;52.596;13.112;2022-07-06T07:36:14;1.90;;;1.63;;
2724;SDS011;1370;52.596;13.112;2022-07-06T07:38:40;3.50;;;1.50;;
2724;SDS011;1370;52.596;13.112;2022-07-06T07:41:05;4.33;;;1.77;;
2724;SDS011;1370;52.596;13.112;2022-07-06T07:43:31;1.53;;;1.23;;
2724;SDS011;1370;52.596;13.112;2022-07-06T07:45:56;5.80;;;1.47;;
2724;SDS011;1370;52.596;13.112;2022-07-06T07:48:21;3.53;;;1.43;;
2724;SDS011;1370;52.596;13.112;2022-07-06T07:50:47;5.50;;;1.77;;
2724;SDS011;1370;52.596;13.112;2022-07-06T07:53:12;1.97;;;1.37;;
2724;SDS011;1370;52.596;13.112;2022-07-06T07:55:37;6.60;;;1.27;;
2724;SDS011;1370;52.596;13.112;2022-07-06T07:58:02;4.57;;;1.67;;
2724;SDS011;1370;52.596;13.112;2022-07-06T08:00:28;5.57;;;3.50;;
2724;SDS011;1370;52.596;13.112;2022-07-06T08:02:53;3.40;;;3.10;;
2724;SDS011;1370;52.596;13.112;2022-07-06T08:05:19;5.20;;;2.43;;
2724;SDS011;1370;52.596;13.112;2022-07-06T08:07:45;2.80;;;1.70;;
2724;SDS011;1370;52.596;13.112;2022-07-06T08:10:10;5.67;;;1.27;;
2724;SDS011;1370;52.596;13.112;2022-07-06T08:12:35;4.07;;;1.33;;
2724;SDS011;1370;52.596;13.112;2022-07-06T08:15:01;6.07;;;1.67;;
2724;SDS011;1370;52.596;13.112;2022-07-06T08:17:27;3.63;;;1.37;;
2724;SDS011;1370;52.596;13.112;2022-07-06T08:19:52;3.23;;;1.10;;
2724;SDS011;1370;52.596;13.112;2022-07-06T08:22:18;7.63;;;1.70;;
2724;SDS011;1370;52.596;13.112;2022-07-06T08:24:43;1.80;;;1.00;;
2724;SDS011;1370;52.596;13.112;2022-07-06T08:27:08;3.90;;;1.00;;
2724;SDS011;1370;52.596;13.112;2022-07-06T08:29:34;4.10;;;1.10;;
2724;SDS011;1370;52.596;13.112;2022-07-06T08:31:59;2.23;;;1.50;;
2724;SDS011;1370;52.596;13.112;2022-07-06T08:34:24;4.80;;;2.13;;
2724;SDS011;1370;52.596;13.112;2022-07-06T08:36:50;4.73;;;1.37;;
2724;SDS011;1370;52.596;13.112;2022-07-06T08:39:15;1.90;;;1.13;;
2724;SDS011;1370;52.596;13.112;2022-07-06T08:41:40;1.90;;;1.50;;
2724;SDS011;1370;52.596;13.112;2022-07-06T08:44:07;4.23;;;2.20;;
2724;SDS011;1370;52.596;13.112;2022-07-06T08:46:34;3.73;;;2.20;;
2724;SDS011;1370;52.596;13.112;2022-07-06T08:49:00;4.17;;;1.70;;
2724;SDS011;1370;52.596;13.112;2022-07-06T08:51:25;7.00;;;1.87;;
2724;SDS011;1370;52.596;13.112;2022-07-06T08:53:52;3.60;;;1.90;;
2724;SDS011;1370;52.596;13.112;2022-07-06T08:56:18;8.53;;;3.60;;
2724;SDS011;1370;52.596;13.112;2022-07-06T08:58:44;5.53;;;2.13;;
2724;SDS011;1370;52.596;13.112;2022-07-06T09:01:09;9.13;;;1.57;;
2724;SDS011;1370;52.596;13.112;2022-07-06T09:03:35;1.47;;;1.10;;
2724;SDS011;1370;52.596;13.112;2022-07-06T09:06:01;1.67;;;0.77;;
2724;SDS011;1370;52.596;13.112;2022-07-06T09:08:27;1.70;;;0.97;;
2724;SDS011;1370;52.596;13.112;2022-07-06T09:10:52;7.73;;;1.83;;
2724;SDS011;1370;52.596;13.112;2022-07-06T09:13:18;4.20;;;1.83;;
2724;SDS011;1370;52.596;13.112;2022-07-06T09:15:43;3.40;;;1.53;;
2724;SDS011;1370;52.596;13.112;2022-07-06T09:18:08;1.50;;;0.90;;
2724;SDS011;1370;52.596;13.112;2022-07-06T09:20:34;1.83;;;1.37;;
2724;SDS011;1370;52.596;13.112;2022-07-06T09:23:00;4.07;;;1.43;;
2724;SDS011;1370;52.596;13.112;2022-07-06T09:25:27;3.03;;;1.17;;
2724;SDS011;1370;52.596;13.112;2022-07-06T09:27:53;2.90;;;1.37;;
2724;SDS011;1370;52.596;13.112;2022-07-06T09:30:21;1.70;;;1.07;;
2724;SDS011;1370;52.596;13.112;2022-07-06T09:32:48;4.33;;;1.43;;
2724;SDS011;1370;52.596;13.112;2022-07-06T09:35:29;2.10;;;0.90;;
2724;SDS011;1370;52.596;13.112;2022-07-06T09:38:08;2.50;;;1.33;;
2724;SDS011;1370;52.596;13.112;2022-07-06T09:40:37;1.73;;;1.37;;
2724;SDS011;1370;52.596;13.112;2022-07-06T09:43:10;7.50;;;1.63;;
2724;SDS011;1370;52.596;13.112;2022-07-06T09:45:37;3.60;;;1.37;;
2724;SDS011;1370;52.596;13.112;2022-07-06T09:48:06;4.27;;;0.97;;
2724;SDS011;1370;52.596;13.112;2022-07-06T09:50:45;6.90;;;1.47;;
2724;SDS011;1370;52.596;13.112;2022-07-06T09:53:12;8.60;;;2.20;;
2724;SDS011;1370;52.596;13.112;2022-07-06T09:55:38;3.57;;;1.10;;
2724;SDS011;1370;52.596;13.112;2022-07-06T09:58:03;2.63;;;1.07;;
2724;SDS011;1370;52.596;13.112;2022-07-06T10:00:29;1.50;;;0.90;;
2724;SDS011;1370;52.596;13.112;2022-07-06T10:02:54;3.03;;;1.27;;
2724;SDS011;1370;52.596;13.112;2022-07-06T10:05:21;3.20;;;1.00;;
2724;SDS011;1370;52.596;13.112;2022-07-06T10:07:51;1.93;;;1.13;;
2724;SDS011;1370;52.596;13.112;2022-07-06T10:10:21;4.30;;;1.93;;
2724;SDS011;1370;52.596;13.112;2022-07-06T10:12:48;2.03;;;0.90;;
2724;SDS011;1370;52.596;13.112;2022-07-06T10:15:15;2.60;;;1.10;;
2724;SDS011;1370;52.596;13.112;2022-07-06T10:17:41;4.30;;;0.90;;
2724;SDS011;1370;52.596;13.112;2022-07-06T10:20:07;3.50;;;0.90;;
2724;SDS011;1370;52.596;13.112;2022-07-06T10:22:34;2.47;;;0.90;;
2724;SDS011;1370;52.596;13.112;2022-07-06T10:24:59;2.93;;;1.20;;
2724;SDS011;1370;52.596;13.112;2022-07-06T10:27:27;1.40;;;1.00;;
2724;SDS011;1370;52.596;13.112;2022-07-06T10:29:53;2.60;;;0.90;;
2724;SDS011;1370;52.596;13.112;2022-07-06T10:32:18;1.43;;;1.10;;
2724;SDS011;1370;52.596;13.112;2022-07-06T10:34:44;4.53;;;1.90;;
2724;SDS011;1370;52.596;13.112;2022-07-06T10:37:20;5.90;;;1.20;;
2724;SDS011;1370;52.596;13.112;2022-07-06T10:39:47;1.90;;;1.27;;
2724;SDS011;1370;52.596;13.112;2022-07-06T10:42:55;2.80;;;1.07;;
2724;SDS011;1370;52.596;13.112;2022-07-06T10:50:40;3.93;;;1.37;;
2724;SDS011;1370;52.596;13.112;2022-07-06T10:53:10;1.70;;;1.23;;
2724;SDS011;1370;52.596;13.112;2022-07-06T10:55:36;4.50;;;1.50;;
2724;SDS011;1370;52.596;13.112;2022-07-06T10:58:03;3.20;;;1.27;;
2724;SDS011;1370;52.596;13.112;2022-07-06T11:06:04;1.50;;;0.90;;
2724;SDS011;1370;52.596;13.112;2022-07-06T11:08:49;1.60;;;0.70;;
2724;SDS011;1370;52.596;13.112;2022-07-06T11:14:01;2.80;;;0.83;;
2724;SDS011;1370;52.596;13.112;2022-07-06T11:16:30;3.10;;;1.10;;
2724;SDS011;1370;52.596;13.112;2022-07-06T11:24:11;2.27;;;1.20;;
2724;SDS011;1370;52.596;13.112;2022-07-06T11:26:38;1.93;;;1.30;;
2724;SDS011;1370;52.596;13.112;2022-07-06T11:29:04;1.87;;;0.87;;
2724;SDS011;1370;52.596;13.112;2022-07-06T11:31:35;3.23;;;1.00;;
2724;SDS011;1370;52.596;13.112;2022-07-06T11:34:02;2.07;;;1.00;;
2724;SDS011;1370;52.596;13.112;2022-07-06T11:36:28;2.50;;;1.07;;
2724;SDS011;1370;52.596;13.112;2022-07-06T11:38:53;2.47;;;0.83;;
2724;SDS011;1370;52.596;13.112;2022-07-06T11:41:18;1.40;;;0.90;;
2724;SDS011;1370;52.596;13.112;2022-07-06T11:43:44;1.40;;;1.00;;
2724;SDS011;1370;52.596;13.112;2022-07-06T11:46:20;5.63;;;1.20;;
2724;SDS011;1370;52.596;13.112;2022-07-06T11:48:59;2.97;;;1.57;;
2724;SDS011;1370;52.596;13.112;2022-07-06T11:51:29;3.50;;;1.10;;
2724;SDS011;1370;52.596;13.112;2022-07-06T11:53:57;3.50;;;1.17;;
2724;SDS011;1370;52.596;13.112;2022-07-06T11:56:28;5.63;;;1.10;;
2724;SDS011;1370;52.596;13.112;2022-07-06T11:58:54;1.30;;;0.80;;
2724;SDS011;1370;52.596;13.112;2022-07-06T12:01:21;1.70;;;1.00;;
2724;SDS011;1370;52.596;13.112;2022-07-06T12:03:48;2.50;;;1.27;;
2724;SDS011;1370;52.596;13.112;2022-07-06T12:06:18;2.00;;;1.80;;
2724;SDS011;1370;52.596;13.112;2022-07-06T12:08:48;4.80;;;1.30;;
2724;SDS011;1370;52.596;13.112;2022-07-06T12:11:21;3.23;;;1.17;;
2724;SDS011;1370;52.596;13.112;2022-07-06T12:13:55;1.50;;;1.10;;
2724;SDS011;1370;52.596;13.112;2022-07-06T12:16:26;2.60;;;1.00;;
2724;SDS011;1370;52.596;13.112;2022-07-06T12:18:54;2.80;;;1.43;;
2724;SDS011;1370;52.596;13.112;2022-07-06T12:21:20;1.90;;;0.90;;
2724;SDS011;1370;52.596;13.112;2022-07-06T12:23:49;2.50;;;0.90;;
2724;SDS011;1370;52.596;13.112;2022-07-06T12:26:16;3.87;;;1.27;;
2724;SDS011;1370;52.596;13.112;2022-07-06T12:28:43;1.40;;;0.80;;
2724;SDS011;1370;52.596;13.112;2022-07-06T12:31:09;5.07;;;1.00;;
2724;SDS011;1370;52.596;13.112;2022-07-06T12:33:35;2.83;;;0.90;;
2724;SDS011;1370;52.596;13.112;2022-07-06T12:36:10;3.83;;;1.20;;
2724;SDS011;1370;52.596;13.112;2022-07-06T12:38:40;3.30;;;1.87;;
2724;SDS011;1370;52.596;13.112;2022-07-06T12:41:09;1.97;;;0.70;;
2724;SDS011;1370;52.596;13.112;2022-07-06T12:43:35;2.43;;;1.23;;
2724;SDS011;1370;52.596;13.112;2022-07-06T12:48:55;2.43;;;0.90;;
2724;SDS011;1370;52.596;13.112;2022-07-06T12:51:21;1.90;;;1.13;;
2724;SDS011;1370;52.596;13.112;2022-07-06T12:53:47;1.63;;;0.93;;
2724;SDS011;1370;52.596;13.112;2022-07-06T12:56:12;2.63;;;0.80;;
2724;SDS011;1370;52.596;13.112;2022-07-06T12:58:39;2.13;;;1.27;;
2724;SDS011;1370;52.596;13.112;2022-07-06T13:01:04;2.07;;;0.80;;
2724;SDS011;1370;52.596;13.112;2022-07-06T13:03:40;1.63;;;0.80;;
2724;SDS011;1370;52.596;13.112;2022-07-06T13:06:05;3.53;;;1.10;;
2724;SDS011;1370;52.596;13.112;2022-07-06T13:08:30;4.70;;;0.93;;
2724;SDS011;1370;52.596;13.112;2022-07-06T13:10:56;4.27;;;0.90;;
2724;SDS011;1370;52.596;13.112;2022-07-06T13:13:21;2.33;;;1.40;;
2724;SDS011;1370;52.596;13.112;2022-07-06T13:15:47;3.87;;;0.70;;
2724;SDS011;1370;52.596;13.112;2022-07-06T13:18:13;2.67;;;1.00;;
2724;SDS011;1370;52.596;13.112;2022-07-06T13:20:38;3.27;;;2.97;;
2724;SDS011;1370;52.596;13.112;2022-07-06T13:23:03;3.10;;;1.10;;
2724;SDS011;1370;52.596;13.112;2022-07-06T13:25:28;6.00;;;1.10;;
2724;SDS011;1370;52.596;13.112;2022-07-06T13:27:54;2.40;;;0.60;;
2724;SDS011;1370;52.596;13.112;2022-07-06T13:30:19;3.93;;;1.03;;
2724;SDS011;1370;52.596;13.112;2022-07-06T13:32:44;3.30;;;0.80;;
2724;SDS011;1370;52.596;13.112;2022-07-06T13:35:10;2.50;;;0.70;;
2724;SDS011;1370;52.596;13.112;2022-07-06T13:37:35;5.07;;;0.90;;
2724;SDS011;1370;52.596;13.112;2022-07-06T13:40:00;1.63;;;1.53;;
2724;SDS011;1370;52.596;13.112;2022-07-06T13:42:26;2.13;;;0.80;;
2724;SDS011;1370;52.596;13.112;2022-07-06T13:44:51;8.20;;;1.80;;
2724;SDS011;1370;52.596;13.112;2022-07-06T13:47:16;2.00;;;0.70;;
2724;SDS011;1370;52.596;13.112;2022-07-06T13:49:41;1.60;;;0.70;;
2724;SDS011;1370;52.596;13.112;2022-07-06T13:52:08;1.57;;;0.60;;
2724;SDS011;1370;52.596;13.112;2022-07-06T13:54:33;1.60;;;0.93;;
2724;SDS011;1370;52.596;13.112;2022-07-06T13:57:03;5.07;;;0.87;;
2724;SDS011;1370;52.596;13.112;2022-07-06T13:59:29;1.90;;;0.83;;
2724;SDS011;1370;52.596;13.112;2022-07-06T14:01:55;2.53;;;0.73;;
2724;SDS011;1370;52.596;13.112;2022-07-06T14:04:20;2.63;;;0.90;;
2724;SDS011;1370;52.596;13.112;2022-07-06T14:06:46;3.17;;;0.80;;
2724;SDS011;1370;52.596;13.112;2022-07-06T14:09:11;1.30;;;0.60;;
2724;SDS011;1370;52.596;13.112;2022-07-06T14:11:36;2.20;;;1.40;;
2724;SDS011;1370;52.596;13.112;2022-07-06T14:14:02;1.50;;;0.70;;
2724;SDS011;1370;52.596;13.112;2022-07-06T14:16:27;4.20;;;1.10;;
2724;SDS011;1370;52.596;13.112;2022-07-06T14:18:52;1.97;;;0.80;;
2724;SDS011;1370;52.596;13.112;2022-07-06T14:21:18;1.60;;;0.93;;
2724;SDS011;1370;52.596;13.112;2022-07-06T14:23:43;1.40;;;0.80;;
2724;SDS011;1370;52.596;13.112;2022-07-06T14:26:08;1.33;;;0.70;;
2724;SDS011;1370;52.596;13.112;2022-07-06T14:28:33;2.23;;;0.80;;
2724;SDS011;1370;52.596;13.112;2022-07-06T14:30:59;11.03;;;1.27;;
2724;SDS011;1370;52.596;13.112;2022-07-06T14:33:27;2.43;;;0.73;;
2724;SDS011;1370;52.596;13.112;2022-07-06T14:35:52;4.47;;;1.23;;
2724;SDS011;1370;52.596;13.112;2022-07-06T14:38:18;5.53;;;1.13;;
2724;SDS011;1370;52.596;13.112;2022-07-06T14:40:44;2.73;;;1.00;;
2724;SDS011;1370;52.596;13.112;2022-07-06T14:43:09;2.80;;;0.70;;
2724;SDS011;1370;52.596;13.112;2022-07-06T14:45:35;4.50;;;0.70;;
2724;SDS011;1370;52.596;13.112;2022-07-06T14:48:00;1.60;;;0.80;;
2724;SDS011;1370;52.596;13.112;2022-07-06T14:50:25;3.60;;;1.33;;
2724;SDS011;1370;52.596;13.112;2022-07-06T14:52:51;2.90;;;1.00;;
2724;SDS011;1370;52.596;13.112;2022-07-06T14:55:18;2.03;;;0.80;;
2724;SDS011;1370;52.596;13.112;2022-07-06T14:57:43;2.00;;;0.90;;
2724;SDS011;1370;52.596;13.112;2022-07-06T15:00:09;7.27;;;1.70;;
2724;SDS011;1370;52.596;13.112;2022-07-06T15:02:35;3.83;;;1.63;;
2724;SDS011;1370;52.596;13.112;2022-07-06T15:05:00;1.60;;;0.80;;
2724;SDS011;1370;52.596;13.112;2022-07-06T15:07:25;3.53;;;0.70;;
2724;SDS011;1370;52.596;13.112;2022-07-06T15:09:51;7.70;;;0.90;;
2724;SDS011;1370;52.596;13.112;2022-07-06T15:12:16;1.60;;;0.90;;
2724;SDS011;1370;52.596;13.112;2022-07-06T15:14:41;1.70;;;0.80;;
2724;SDS011;1370;52.596;13.112;2022-07-06T15:17:06;1.57;;;0.90;;